createdAt,value
2022-12-09T00:00:57.368Z,7.84
2022-12-09T00:01:59.039Z,7.83
2022-12-09T00:03:00.821Z,7.81
2022-12-09T00:04:02.879Z,7.82
2022-12-09T00:05:05.151Z,7.83
2022-12-09T00:06:10.513Z,7.84
2022-12-09T00:07:11.983Z,7.82
2022-12-09T00:08:13.574Z,7.81
2022-12-09T00:09:18.208Z,7.80
2022-12-09T00:10:19.806Z,7.81
2022-12-09T00:11:21.412Z,7.77
2022-12-09T00:12:22.930Z,7.78
2022-12-09T00:13:24.655Z,7.77
2022-12-09T00:14:28.605Z,7.77
2022-12-09T00:15:30.160Z,7.78
2022-12-09T00:16:35.494Z,7.78
2022-12-09T00:17:37.294Z,7.80
2022-12-09T00:18:39.185Z,7.68
2022-12-09T00:19:40.711Z,7.81
2022-12-09T00:20:42.237Z,7.83
2022-12-09T00:21:43.874Z,7.83
2022-12-09T00:22:45.474Z,7.82
2022-12-09T00:23:50.165Z,7.79
2022-12-09T00:24:51.873Z,7.75
2022-12-09T00:25:53.819Z,7.73
2022-12-09T00:26:55.533Z,7.72
2022-12-09T00:27:57.067Z,7.74
2022-12-09T00:28:58.726Z,7.73
2022-12-09T00:30:00.254Z,7.74
2022-12-09T00:31:02.349Z,7.77
2022-12-09T00:32:04.205Z,7.78
2022-12-09T00:33:05.871Z,7.79
2022-12-09T00:34:09.971Z,7.81
2022-12-09T00:35:12.857Z,7.82
2022-12-09T00:36:16.092Z,7.83
2022-12-09T00:37:17.681Z,7.83
2022-12-09T00:38:19.856Z,7.85
2022-12-09T00:39:21.416Z,7.82
2022-12-09T00:40:24.960Z,7.82
2022-12-09T00:41:26.642Z,7.83
2022-12-09T00:42:28.169Z,7.81
2022-12-09T00:43:29.768Z,7.80
2022-12-09T00:44:31.274Z,7.80
2022-12-09T00:45:35.522Z,7.81
2022-12-09T00:46:37.724Z,7.82
2022-12-09T00:47:40.993Z,7.82
2022-12-09T00:48:42.731Z,7.83
2022-12-09T00:49:44.298Z,7.84
2022-12-09T00:50:46.138Z,7.84
2022-12-09T00:51:49.987Z,7.84
2022-12-09T00:52:51.713Z,7.85
2022-12-09T00:54:01.578Z,7.86
2022-12-09T00:55:03.514Z,7.82
2022-12-09T00:56:08.353Z,7.84
2022-12-09T00:57:10.166Z,7.84
2022-12-09T00:58:11.919Z,7.85
2022-12-09T00:59:13.397Z,7.86
2022-12-09T01:00:15.266Z,7.86
2022-12-09T01:01:16.915Z,7.86
2022-12-09T01:02:18.895Z,7.87
2022-12-09T01:03:20.838Z,7.86
2022-12-09T01:04:24.674Z,7.86
2022-12-09T01:05:28.608Z,7.85
2022-12-09T01:06:33.257Z,7.86
2022-12-09T01:07:37.561Z,7.86
2022-12-09T01:08:39.864Z,7.86
2022-12-09T01:09:41.758Z,7.87
2022-12-09T01:10:43.828Z,7.86
2022-12-09T01:11:45.554Z,7.87
2022-12-09T01:12:47.515Z,7.87
2022-12-09T01:13:49.042Z,7.87
2022-12-09T01:14:52.554Z,7.88
2022-12-09T01:15:54.695Z,7.87
2022-12-09T01:16:56.436Z,7.83
2022-12-09T01:17:58.279Z,7.73
2022-12-09T01:19:00.495Z,7.72
2022-12-09T01:20:02.267Z,7.71
2022-12-09T01:21:03.807Z,7.71
2022-12-09T01:22:05.319Z,7.71
2022-12-09T01:23:07.084Z,7.70
2022-12-09T01:24:09.235Z,7.71
2022-12-09T01:25:11.068Z,7.71
2022-12-09T01:26:12.787Z,7.71
2022-12-09T01:27:14.944Z,7.71
2022-12-09T01:28:16.418Z,7.71
2022-12-09T01:29:18.113Z,7.70
2022-12-09T01:30:21.701Z,7.71
2022-12-09T01:31:24.107Z,7.70
2022-12-09T01:32:25.924Z,7.68
2022-12-09T01:33:27.525Z,7.67
2022-12-09T01:34:29.484Z,7.69
2022-12-09T01:35:31.048Z,7.67
2022-12-09T01:36:32.585Z,7.68
2022-12-09T01:37:37.401Z,7.68
2022-12-09T01:38:39.014Z,7.67
2022-12-09T01:39:40.693Z,7.67
2022-12-09T01:40:45.022Z,7.67
2022-12-09T01:41:46.917Z,7.67
2022-12-09T01:42:49.525Z,7.68
2022-12-09T01:44:07.484Z,7.67
2022-12-09T01:45:26.605Z,7.67
2022-12-09T01:46:28.233Z,7.67
2022-12-09T01:47:29.844Z,7.68
2022-12-09T01:48:32.283Z,7.68
2022-12-09T01:49:42.500Z,7.69
2022-12-09T01:50:44.629Z,7.70
2022-12-09T01:51:47.009Z,7.70
2022-12-09T01:52:49.276Z,7.70
2022-12-09T01:53:50.944Z,7.70
2022-12-09T01:54:53.439Z,7.70
2022-12-09T01:55:55.501Z,7.70
2022-12-09T01:56:57.417Z,7.70
2022-12-09T01:57:59.033Z,7.70
2022-12-09T01:59:02.982Z,7.70
2022-12-09T02:00:05.081Z,7.68
2022-12-09T02:01:18.040Z,7.67
2022-12-09T02:02:19.761Z,7.67
2022-12-09T02:03:22.193Z,7.65
2022-12-09T02:04:23.935Z,7.64
2022-12-09T02:05:26.014Z,7.65
2022-12-09T02:06:32.100Z,7.62
2022-12-09T02:07:34.418Z,7.61
2022-12-09T02:08:36.033Z,7.60
2022-12-09T02:09:38.736Z,7.59
2022-12-09T02:10:46.934Z,7.57
2022-12-09T02:11:49.439Z,7.56
2022-12-09T02:13:07.110Z,7.57
2022-12-09T02:14:28.866Z,7.54
2022-12-09T02:15:35.210Z,7.53
2022-12-09T02:16:40.058Z,7.52
2022-12-09T02:17:43.117Z,7.52
2022-12-09T02:18:45.553Z,7.51
2022-12-09T02:19:53.732Z,7.51
2022-12-09T02:21:02.059Z,7.48
2022-12-09T02:22:03.587Z,7.47
2022-12-09T02:23:23.649Z,7.48
2022-12-09T02:24:38.691Z,7.47
2022-12-09T02:25:44.578Z,7.45
2022-12-09T02:26:49.046Z,7.46
2022-12-09T02:27:54.656Z,7.45
2022-12-09T02:29:15.463Z,7.45
2022-12-09T02:30:17.665Z,7.44
2022-12-09T02:31:21.595Z,7.41
2022-12-09T02:32:27.444Z,7.36
2022-12-09T02:33:47.582Z,7.29
2022-12-09T02:34:59.769Z,7.29
2022-12-09T02:36:05.698Z,7.26
2022-12-09T02:37:17.694Z,7.25
2022-12-09T02:38:25.918Z,7.25
2022-12-09T02:39:36.612Z,7.25
2022-12-09T02:40:53.068Z,7.24
2022-12-09T02:41:54.750Z,7.24
2022-12-09T02:42:56.605Z,7.24
2022-12-09T02:44:08.302Z,7.24
2022-12-09T02:45:10.122Z,7.23
2022-12-09T02:46:15.213Z,7.24
2022-12-09T02:47:19.680Z,7.25
2022-12-09T02:48:26.417Z,7.26
2022-12-09T02:49:28.132Z,7.26
2022-12-09T02:50:30.575Z,7.26
2022-12-09T02:51:33.054Z,7.26
2022-12-09T02:52:34.918Z,7.26
2022-12-09T02:53:37.454Z,7.25
2022-12-09T02:54:39.685Z,7.25
2022-12-09T02:55:42.164Z,7.23
2022-12-09T02:56:46.806Z,7.24
2022-12-09T02:57:55.936Z,7.22
2022-12-09T02:59:01.565Z,7.23
2022-12-09T03:00:06.515Z,7.22
2022-12-09T03:01:41.156Z,7.21
2022-12-09T03:02:45.172Z,7.21
2022-12-09T03:03:47.136Z,7.20
2022-12-09T03:05:08.672Z,7.20
2022-12-09T03:06:10.428Z,7.19
2022-12-09T03:07:15.485Z,7.18
2022-12-09T03:08:35.525Z,7.19
2022-12-09T03:09:37.776Z,7.18
2022-12-09T03:10:39.395Z,7.17
2022-12-09T03:11:40.950Z,7.15
2022-12-09T03:12:43.338Z,7.14
2022-12-09T03:13:51.173Z,7.14
2022-12-09T03:14:52.803Z,7.14
2022-12-09T03:15:57.138Z,7.13
2022-12-09T03:17:11.324Z,7.09
2022-12-09T03:18:13.356Z,7.11
2022-12-09T03:19:33.774Z,7.09
2022-12-09T03:20:35.919Z,7.09
2022-12-09T03:21:38.833Z,7.07
2022-12-09T03:22:40.604Z,7.07
2022-12-09T03:23:50.563Z,7.06
2022-12-09T03:25:03.470Z,7.06
2022-12-09T03:26:05.262Z,7.04
2022-12-09T03:27:07.959Z,7.03
2022-12-09T03:28:11.546Z,7.02
2022-12-09T03:29:17.214Z,7.01
2022-12-09T03:30:18.796Z,7.00
2022-12-09T03:31:28.196Z,6.98
2022-12-09T03:32:29.796Z,6.98
2022-12-09T03:33:32.391Z,6.96
2022-12-09T03:34:35.710Z,6.96
2022-12-09T03:35:57.573Z,6.94
2022-12-09T03:36:59.499Z,6.93
2022-12-09T03:38:01.874Z,6.92
2022-12-09T03:39:11.799Z,6.92
2022-12-09T03:40:14.763Z,6.91
2022-12-09T03:41:19.155Z,6.88
2022-12-09T03:42:25.098Z,6.86
2022-12-09T03:43:27.742Z,6.85
2022-12-09T03:44:39.272Z,6.85
2022-12-09T03:45:41.005Z,6.81
2022-12-09T03:46:42.691Z,6.80
2022-12-09T03:47:44.532Z,6.78
2022-12-09T03:48:46.710Z,6.77
2022-12-09T03:49:50.705Z,6.75
2022-12-09T03:50:54.721Z,6.71
2022-12-09T03:52:05.197Z,6.70
2022-12-09T03:53:09.092Z,6.67
2022-12-09T03:54:21.406Z,6.65
2022-12-09T03:55:23.086Z,6.63
2022-12-09T03:56:27.169Z,6.61
2022-12-09T03:57:28.760Z,6.61
2022-12-09T03:58:33.408Z,6.58
2022-12-09T03:59:35.139Z,6.52
2022-12-09T04:00:37.663Z,6.49
2022-12-09T04:01:40.115Z,6.48
2022-12-09T04:02:41.810Z,6.46
2022-12-09T04:03:44.301Z,6.45
2022-12-09T04:04:46.095Z,6.44
2022-12-09T04:05:47.843Z,6.44
2022-12-09T04:06:52.923Z,6.45
2022-12-09T04:07:54.796Z,6.44
2022-12-09T04:09:01.923Z,6.44
2022-12-09T04:10:06.925Z,6.42
2022-12-09T04:11:09.027Z,6.41
2022-12-09T04:12:14.037Z,6.39
2022-12-09T04:13:15.596Z,6.39
2022-12-09T04:14:19.292Z,6.37
2022-12-09T04:15:22.168Z,6.36
2022-12-09T04:16:23.835Z,6.35
2022-12-09T04:17:26.707Z,6.34
2022-12-09T04:18:29.067Z,6.34
2022-12-09T04:19:34.657Z,6.34
2022-12-09T04:20:36.350Z,6.33
2022-12-09T04:21:37.948Z,6.32
2022-12-09T04:22:39.824Z,6.32
2022-12-09T04:23:43.493Z,6.30
2022-12-09T04:24:45.309Z,6.29
2022-12-09T04:25:46.853Z,6.30
2022-12-09T04:26:48.348Z,6.29
2022-12-09T04:27:59.176Z,6.27
2022-12-09T04:29:01.249Z,6.26
2022-12-09T04:30:02.923Z,6.26
2022-12-09T04:31:05.222Z,6.24
2022-12-09T04:32:07.082Z,6.22
2022-12-09T04:33:08.660Z,6.20
2022-12-09T04:34:10.768Z,6.18
2022-12-09T04:35:14.886Z,6.17
2022-12-09T04:36:16.899Z,6.15
2022-12-09T04:37:18.692Z,6.14
2022-12-09T04:38:20.242Z,6.14
2022-12-09T04:39:21.691Z,6.14
2022-12-09T04:40:24.578Z,6.13
2022-12-09T04:41:26.651Z,6.12
2022-12-09T04:42:31.082Z,6.13
2022-12-09T04:43:32.565Z,6.12
2022-12-09T04:44:34.127Z,6.11
2022-12-09T04:45:36.272Z,6.11
2022-12-09T04:46:37.768Z,6.11
2022-12-09T04:47:39.345Z,6.10
2022-12-09T04:48:43.901Z,6.09
2022-12-09T04:49:45.388Z,6.07
2022-12-09T04:50:50.497Z,6.05
2022-12-09T04:51:55.149Z,6.05
2022-12-09T04:52:57.403Z,6.04
2022-12-09T04:53:59.251Z,6.03
2022-12-09T04:55:02.547Z,6.03
2022-12-09T04:56:08.479Z,6.02
2022-12-09T04:57:12.346Z,6.00
2022-12-09T04:58:13.956Z,6.00
2022-12-09T04:59:19.748Z,5.97
2022-12-09T05:00:23.688Z,5.96
2022-12-09T05:01:30.619Z,5.97
2022-12-09T05:02:36.443Z,5.95
2022-12-09T05:03:38.539Z,5.94
2022-12-09T05:04:40.423Z,5.94
2022-12-09T05:05:42.434Z,5.94
2022-12-09T05:06:46.532Z,5.96
2022-12-09T05:07:48.545Z,5.97
2022-12-09T05:08:50.594Z,5.96
2022-12-09T05:09:52.430Z,5.97
2022-12-09T05:10:57.396Z,5.97
2022-12-09T05:11:59.341Z,5.98
2022-12-09T05:13:01.476Z,5.98
2022-12-09T05:14:03.142Z,5.98
2022-12-09T05:15:05.190Z,5.97
2022-12-09T05:16:13.884Z,5.97
2022-12-09T05:17:17.514Z,5.98
2022-12-09T05:18:19.799Z,5.97
2022-12-09T05:19:21.838Z,5.98
2022-12-09T05:20:28.064Z,5.98
2022-12-09T05:21:30.067Z,5.99
2022-12-09T05:22:35.867Z,5.98
2022-12-09T05:23:37.525Z,5.97
2022-12-09T05:24:41.122Z,5.95
2022-12-09T05:25:46.004Z,5.94
2022-12-09T05:26:47.497Z,5.95
2022-12-09T05:27:49.300Z,5.94
2022-12-09T05:28:53.845Z,5.96
2022-12-09T05:29:55.386Z,5.95
2022-12-09T05:31:03.938Z,5.93
2022-12-09T05:32:05.902Z,5.94
2022-12-09T05:33:08.322Z,5.95
2022-12-09T05:34:10.120Z,5.94
2022-12-09T05:35:12.085Z,5.94
2022-12-09T05:36:14.491Z,5.95
2022-12-09T05:37:16.175Z,5.94
2022-12-09T05:38:19.553Z,5.93
2022-12-09T05:39:21.575Z,5.94
2022-12-09T05:40:23.525Z,5.93
2022-12-09T05:41:25.202Z,5.94
2022-12-09T05:42:26.965Z,5.93
2022-12-09T05:43:28.910Z,5.94
2022-12-09T05:44:31.179Z,5.92
2022-12-09T05:45:36.286Z,5.93
2022-12-09T05:46:40.368Z,5.93
2022-12-09T05:47:42.449Z,5.91
2022-12-09T05:48:45.211Z,5.92
2022-12-09T05:49:46.939Z,5.92
2022-12-09T05:51:01.363Z,5.93
2022-12-09T05:52:05.554Z,5.92
2022-12-09T05:53:07.288Z,5.92
2022-12-09T05:54:09.015Z,5.92
2022-12-09T05:55:11.162Z,5.93
2022-12-09T05:56:17.072Z,5.93
2022-12-09T05:57:19.112Z,5.85
2022-12-09T05:58:21.153Z,5.94
2022-12-09T05:59:22.729Z,5.93
2022-12-09T06:00:24.416Z,5.95
2022-12-09T06:01:26.532Z,5.95
2022-12-09T06:02:28.526Z,5.96
2022-12-09T06:03:30.642Z,5.96
2022-12-09T06:04:32.490Z,5.98
2022-12-09T06:05:34.581Z,5.98
2022-12-09T06:06:36.980Z,5.97
2022-12-09T06:07:38.916Z,5.99
2022-12-09T06:08:41.389Z,6.00
2022-12-09T06:09:44.496Z,6.00
2022-12-09T06:10:47.094Z,6.01
2022-12-09T06:11:49.070Z,6.00
2022-12-09T06:12:53.836Z,6.00
2022-12-09T06:13:55.484Z,6.00
2022-12-09T06:14:57.266Z,5.99
2022-12-09T06:16:04.461Z,5.96
2022-12-09T06:17:06.146Z,5.95
2022-12-09T06:18:08.153Z,5.94
2022-12-09T06:19:10.667Z,5.94
2022-12-09T06:20:12.930Z,5.93
2022-12-09T06:21:16.370Z,5.94
2022-12-09T06:22:17.991Z,5.93
2022-12-09T06:23:19.574Z,5.93
2022-12-09T06:24:21.210Z,5.93
2022-12-09T06:25:22.766Z,5.93
2022-12-09T06:26:25.636Z,5.92
2022-12-09T06:27:30.340Z,5.91
2022-12-09T06:28:34.005Z,5.90
2022-12-09T06:29:41.255Z,5.89
2022-12-09T06:30:42.845Z,5.88
2022-12-09T06:31:44.470Z,5.87
2022-12-09T06:32:46.771Z,5.87
2022-12-09T06:33:57.701Z,5.88
2022-12-09T06:35:00.759Z,5.92
2022-12-09T06:36:03.437Z,5.93
2022-12-09T06:37:05.198Z,5.95
2022-12-09T06:38:06.988Z,5.93
2022-12-09T06:39:11.016Z,5.92
2022-12-09T06:40:13.854Z,5.92
2022-12-09T06:41:15.612Z,5.89
2022-12-09T06:42:17.928Z,5.84
2022-12-09T06:43:19.520Z,5.87
2022-12-09T06:44:23.741Z,5.86
2022-12-09T06:45:25.963Z,5.88
2022-12-09T06:46:28.195Z,5.86
2022-12-09T06:47:29.935Z,5.84
2022-12-09T06:48:32.669Z,5.85
2022-12-09T06:49:37.698Z,5.85
2022-12-09T06:50:39.727Z,5.86
2022-12-09T06:51:41.591Z,5.85
2022-12-09T06:52:43.521Z,5.84
2022-12-09T06:53:45.549Z,5.82
2022-12-09T06:54:47.430Z,5.82
2022-12-09T06:55:49.436Z,5.79
2022-12-09T06:56:51.441Z,5.78
2022-12-09T06:57:52.983Z,5.77
2022-12-09T06:58:54.856Z,5.77
2022-12-09T06:59:57.610Z,5.76
2022-12-09T07:01:13.769Z,5.75
2022-12-09T07:02:16.044Z,5.76
2022-12-09T07:03:18.115Z,5.76
2022-12-09T07:04:19.911Z,5.76
2022-12-09T07:05:24.208Z,5.75
2022-12-09T07:06:30.368Z,5.75
2022-12-09T07:07:33.185Z,5.74
2022-12-09T07:08:34.975Z,5.73
2022-12-09T07:09:36.953Z,5.72
2022-12-09T07:10:39.254Z,5.72
2022-12-09T07:11:44.557Z,5.72
2022-12-09T07:12:46.423Z,5.71
2022-12-09T07:13:48.047Z,5.69
2022-12-09T07:14:49.776Z,5.68
2022-12-09T07:15:53.912Z,5.68
2022-12-09T07:16:55.885Z,5.69
2022-12-09T07:17:59.276Z,5.68
2022-12-09T07:19:01.236Z,5.60
2022-12-09T07:20:07.077Z,5.57
2022-12-09T07:21:12.720Z,5.52
2022-12-09T07:22:14.622Z,5.52
2022-12-09T07:23:18.963Z,5.48
2022-12-09T07:24:20.791Z,5.46
2022-12-09T07:25:22.781Z,5.47
2022-12-09T07:26:26.822Z,5.48
2022-12-09T07:27:31.121Z,5.48
2022-12-09T07:28:33.323Z,5.48
2022-12-09T07:29:37.851Z,5.49
2022-12-09T07:30:39.655Z,5.48
2022-12-09T07:31:41.422Z,5.49
2022-12-09T07:32:43.305Z,5.50
2022-12-09T07:33:45.374Z,5.48
2022-12-09T07:34:47.170Z,5.49
2022-12-09T07:35:53.287Z,5.46
2022-12-09T07:36:55.429Z,5.45
2022-12-09T07:37:59.871Z,5.46
2022-12-09T07:39:05.489Z,5.45
2022-12-09T07:40:07.366Z,5.42
2022-12-09T07:41:09.470Z,5.42
2022-12-09T07:42:11.340Z,5.42
2022-12-09T07:43:21.272Z,5.42
2022-12-09T07:44:24.101Z,5.43
2022-12-09T07:45:29.549Z,5.41
2022-12-09T07:46:31.505Z,5.39
2022-12-09T07:47:38.521Z,5.40
2022-12-09T07:48:40.708Z,5.42
2022-12-09T07:49:45.368Z,5.43
2022-12-09T07:50:47.301Z,5.44
2022-12-09T07:51:54.325Z,5.43
2022-12-09T07:52:56.124Z,5.41
2022-12-09T07:53:57.961Z,5.41
2022-12-09T07:55:01.589Z,5.39
2022-12-09T07:56:09.886Z,5.42
2022-12-09T07:57:11.481Z,5.40
2022-12-09T07:58:16.408Z,5.41
2022-12-09T07:59:18.445Z,5.37
2022-12-09T08:00:20.214Z,5.40
2022-12-09T08:01:26.048Z,5.40
2022-12-09T08:02:28.875Z,5.43
2022-12-09T08:03:30.533Z,5.44
2022-12-09T08:04:32.680Z,5.47
2022-12-09T08:05:34.739Z,5.49
2022-12-09T08:06:36.842Z,5.51
2022-12-09T08:07:43.849Z,5.53
2022-12-09T08:08:46.431Z,5.56
2022-12-09T08:09:48.223Z,5.56
2022-12-09T08:10:50.170Z,5.60
2022-12-09T08:11:51.892Z,5.63
2022-12-09T08:12:56.861Z,5.65
2022-12-09T08:14:07.210Z,5.67
2022-12-09T08:15:20.180Z,5.70
2022-12-09T08:16:22.594Z,5.73
2022-12-09T08:17:32.177Z,5.75
2022-12-09T08:18:34.378Z,5.76
2022-12-09T08:19:43.720Z,5.78
2022-12-09T08:20:45.528Z,5.82
2022-12-09T08:21:52.882Z,5.84
2022-12-09T08:22:56.388Z,5.87
2022-12-09T08:23:59.898Z,5.86
2022-12-09T08:25:01.972Z,5.88
2022-12-09T08:26:06.421Z,5.88
2022-12-09T08:27:08.505Z,5.89
2022-12-09T08:28:13.100Z,5.90
2022-12-09T08:29:17.523Z,5.92
2022-12-09T08:30:19.650Z,5.95
2022-12-09T08:31:23.289Z,5.97
2022-12-09T08:32:28.064Z,5.94
2022-12-09T08:33:37.368Z,5.95
2022-12-09T08:34:39.507Z,5.98
2022-12-09T08:35:41.211Z,6.01
2022-12-09T08:36:43.354Z,6.03
2022-12-09T08:37:45.230Z,6.05
2022-12-09T08:38:48.798Z,6.09
2022-12-09T08:39:50.370Z,6.12
2022-12-09T08:40:51.841Z,6.15
2022-12-09T08:41:53.523Z,6.17
2022-12-09T08:42:58.079Z,6.20
2022-12-09T08:44:02.885Z,6.23
2022-12-09T08:45:04.847Z,6.25
2022-12-09T08:46:07.008Z,6.26
2022-12-09T08:47:08.990Z,6.27
2022-12-09T08:48:11.206Z,6.28
2022-12-09T08:49:13.407Z,6.30
2022-12-09T08:50:16.130Z,6.33
2022-12-09T08:51:18.457Z,6.33
2022-12-09T08:52:20.427Z,6.36
2022-12-09T08:53:22.189Z,6.37
2022-12-09T08:54:24.214Z,6.38
2022-12-09T08:55:26.003Z,6.37
2022-12-09T08:56:27.762Z,6.39
2022-12-09T08:57:29.532Z,6.36
2022-12-09T08:58:31.461Z,6.35
2022-12-09T08:59:33.456Z,6.38
2022-12-09T09:00:35.202Z,6.38
2022-12-09T09:01:39.856Z,6.41
2022-12-09T09:02:44.179Z,6.42
2022-12-09T09:03:48.080Z,6.40
2022-12-09T09:04:49.879Z,6.44
2022-12-09T09:05:54.320Z,6.45
2022-12-09T09:06:56.324Z,6.47
2022-12-09T09:07:58.728Z,6.44
2022-12-09T09:09:00.402Z,6.47
2022-12-09T09:10:02.643Z,6.48
2022-12-09T09:11:10.465Z,6.50
2022-12-09T09:12:12.150Z,6.52
2022-12-09T09:13:14.173Z,6.54
2022-12-09T09:14:16.765Z,6.57
2022-12-09T09:15:18.704Z,6.60
2022-12-09T09:16:21.660Z,6.61
2022-12-09T09:17:23.763Z,6.62
2022-12-09T09:18:26.053Z,6.61
2022-12-09T09:19:27.897Z,6.62
2022-12-09T09:20:29.583Z,6.64
2022-12-09T09:21:31.403Z,6.68
2022-12-09T09:22:33.325Z,6.67
2022-12-09T09:23:35.324Z,6.69
2022-12-09T09:24:37.109Z,6.72
2022-12-09T09:25:42.711Z,6.75
2022-12-09T09:26:45.063Z,6.75
2022-12-09T09:27:46.624Z,6.80
2022-12-09T09:28:48.224Z,6.83
2022-12-09T09:29:50.214Z,6.83
2022-12-09T09:30:58.390Z,6.88
2022-12-09T09:32:00.570Z,6.90
2022-12-09T09:33:06.025Z,6.90
2022-12-09T09:34:12.162Z,6.89
2022-12-09T09:35:19.792Z,6.93
2022-12-09T09:36:22.641Z,6.93
2022-12-09T09:37:24.570Z,6.93
2022-12-09T09:38:26.396Z,6.96
2022-12-09T09:39:28.101Z,6.98
2022-12-09T09:40:40.768Z,7.00
2022-12-09T09:43:00.206Z,7.04
2022-12-09T09:44:05.404Z,7.07
2022-12-09T09:45:07.508Z,7.09
2022-12-09T09:46:09.468Z,7.11
2022-12-09T09:47:13.995Z,7.13
2022-12-09T09:48:17.690Z,7.13
2022-12-09T09:49:25.408Z,7.18
2022-12-09T09:50:32.774Z,7.18
2022-12-09T09:51:37.405Z,7.19
2022-12-09T09:52:39.491Z,7.22
2022-12-09T09:53:42.432Z,7.26
2022-12-09T09:54:44.357Z,7.32
2022-12-09T09:55:53.237Z,7.38
2022-12-09T09:56:56.817Z,7.45
2022-12-09T09:58:14.400Z,7.52
2022-12-09T09:59:31.238Z,7.60
2022-12-09T10:00:37.208Z,7.59
2022-12-09T10:01:39.416Z,7.63
2022-12-09T10:02:45.874Z,7.67
2022-12-09T10:03:53.614Z,7.66
2022-12-09T10:05:10.344Z,7.74
2022-12-09T10:06:22.904Z,7.79
2022-12-09T10:07:37.899Z,7.82
2022-12-09T10:08:59.551Z,7.90
2022-12-09T10:10:01.815Z,8.01
2022-12-09T10:11:07.096Z,8.11
2022-12-09T10:12:09.006Z,8.17
2022-12-09T10:13:16.231Z,8.20
2022-12-09T10:15:30.447Z,8.37
2022-12-09T10:16:54.186Z,8.47
2022-12-09T10:18:05.409Z,8.61
2022-12-09T10:19:22.682Z,8.67
2022-12-09T10:20:25.554Z,8.74
2022-12-09T10:21:28.209Z,8.80
2022-12-09T10:22:30.640Z,8.83
2022-12-09T10:23:35.390Z,8.90
2022-12-09T10:24:40.527Z,8.97
2022-12-09T10:25:55.811Z,9.03
2022-12-09T10:27:15.369Z,9.08
2022-12-09T10:28:19.479Z,9.18
2022-12-09T10:29:24.051Z,9.23
2022-12-09T10:30:29.946Z,9.36
2022-12-09T10:31:35.195Z,9.45
2022-12-09T10:32:43.125Z,9.52
2022-12-09T10:33:44.770Z,9.64
2022-12-09T10:34:47.694Z,9.76
2022-12-09T10:35:49.709Z,9.83
2022-12-09T10:36:51.948Z,9.85
2022-12-09T10:37:54.251Z,9.91
2022-12-09T10:38:56.136Z,10.05
2022-12-09T10:40:10.958Z,10.12
2022-12-09T10:41:51.892Z,10.22
2022-12-09T10:43:13.121Z,10.25
2022-12-09T10:44:18.955Z,10.37
2022-12-09T10:45:20.998Z,10.41
2022-12-09T10:46:24.288Z,10.42
2022-12-09T10:47:27.180Z,10.50
2022-12-09T10:48:36.481Z,10.46
2022-12-09T10:49:38.603Z,10.55
2022-12-09T10:50:40.429Z,10.68
2022-12-09T10:51:42.421Z,10.76
2022-12-09T10:52:46.766Z,10.84
2022-12-09T10:53:51.696Z,11.00
2022-12-09T10:54:53.699Z,11.15
2022-12-09T10:55:55.611Z,11.28
2022-12-09T10:57:07.622Z,11.28
2022-12-09T10:58:22.651Z,11.25
2022-12-09T10:59:29.925Z,11.29
2022-12-09T11:00:35.007Z,11.31
2022-12-09T11:01:53.046Z,11.35
2022-12-09T11:02:57.720Z,11.39
2022-12-09T11:03:59.830Z,11.44
2022-12-09T11:05:20.868Z,11.49
2022-12-09T11:06:33.431Z,11.55
2022-12-09T11:07:37.901Z,11.53
2022-12-09T11:08:40.717Z,11.45
2022-12-09T11:09:46.950Z,11.42
2022-12-09T11:10:56.558Z,11.33
2022-12-09T11:12:01.196Z,11.24
2022-12-09T11:13:09.740Z,11.18
2022-12-09T11:14:30.567Z,11.10
2022-12-09T11:15:38.211Z,11.13
2022-12-09T11:16:40.075Z,11.08
2022-12-09T11:17:43.355Z,11.04
2022-12-09T11:18:46.522Z,11.03
2022-12-09T11:20:08.589Z,11.05
2022-12-09T11:22:44.179Z,11.02
2022-12-09T11:23:57.174Z,10.97
2022-12-09T11:25:13.358Z,10.94
2022-12-09T11:26:22.362Z,10.95
2022-12-09T11:27:24.291Z,10.99
2022-12-09T11:28:33.580Z,11.03
2022-12-09T11:29:35.104Z,11.06
2022-12-09T11:30:43.325Z,11.06
2022-12-09T11:32:00.099Z,11.00
2022-12-09T11:33:22.851Z,10.97
2022-12-09T11:34:27.442Z,11.01
2022-12-09T11:35:31.287Z,10.99
2022-12-09T11:36:35.347Z,10.99
2022-12-09T11:37:41.256Z,10.95
2022-12-09T11:38:43.759Z,10.89
2022-12-09T11:39:48.920Z,10.87
2022-12-09T11:41:10.621Z,10.87
2022-12-09T11:42:18.890Z,10.86
2022-12-09T11:43:20.667Z,10.79
2022-12-09T11:44:24.472Z,10.78
2022-12-09T11:45:28.121Z,10.75
2022-12-09T11:46:30.117Z,10.71
2022-12-09T11:48:25.859Z,10.73
2022-12-09T11:49:17.908Z,10.73
2022-12-09T11:50:23.807Z,10.74
2022-12-09T11:51:35.177Z,10.73
2022-12-09T11:52:36.619Z,10.66
2022-12-09T11:53:40.005Z,10.62
2022-12-09T11:54:44.176Z,10.64
2022-12-09T11:55:49.746Z,10.62
2022-12-09T11:56:51.462Z,10.58
2022-12-09T11:57:52.919Z,10.58
2022-12-09T11:59:00.146Z,10.58
2022-12-09T12:00:03.662Z,10.59
2022-12-09T12:01:12.003Z,10.53
2022-12-09T12:02:16.563Z,10.48
2022-12-09T12:03:23.348Z,10.47
2022-12-09T12:04:33.571Z,10.44
2022-12-09T12:05:39.208Z,10.41
2022-12-09T12:06:40.637Z,10.46
2022-12-09T12:07:44.436Z,10.46
2022-12-09T12:08:47.771Z,10.46
2022-12-09T12:09:49.376Z,10.39
2022-12-09T12:10:53.043Z,10.39
2022-12-09T12:12:01.110Z,10.40
2022-12-09T12:13:07.153Z,10.42
2022-12-09T12:14:21.311Z,10.37
2022-12-09T12:15:24.890Z,10.34
2022-12-09T12:16:31.542Z,10.29
2022-12-09T12:17:41.147Z,10.30
2022-12-09T12:18:50.011Z,10.32
2022-12-09T12:19:52.037Z,10.32
2022-12-09T12:21:06.280Z,10.34
2022-12-09T12:22:24.350Z,10.37
2022-12-09T12:23:28.653Z,10.31
2022-12-09T12:24:42.292Z,10.28
2022-12-09T12:25:50.465Z,10.28
2022-12-09T12:27:12.818Z,10.28
2022-12-09T12:28:14.301Z,10.20
2022-12-09T12:29:18.569Z,10.16
2022-12-09T12:30:20.921Z,10.10
2022-12-09T12:31:45.749Z,10.10
2022-12-09T12:33:40.844Z,10.01
2022-12-09T12:34:28.334Z,9.98
2022-12-09T12:35:49.152Z,9.92
2022-12-09T12:36:56.790Z,9.91
2022-12-09T12:38:12.510Z,9.92
2022-12-09T12:39:20.845Z,9.93
2022-12-09T12:40:40.900Z,9.84
2022-12-09T12:41:50.790Z,9.87
2022-12-09T12:43:24.361Z,9.85
2022-12-09T12:44:57.133Z,9.82
2022-12-09T12:46:17.323Z,9.79
2022-12-09T12:47:22.479Z,9.74
2022-12-09T12:48:29.170Z,9.69
2022-12-09T12:49:41.590Z,9.70
2022-12-09T12:50:51.649Z,9.65
2022-12-09T12:51:54.526Z,9.53
2022-12-09T12:52:59.296Z,9.50
2022-12-09T12:54:20.638Z,9.47
2022-12-09T12:55:28.104Z,9.41
2022-12-09T12:56:35.926Z,9.41
2022-12-09T12:57:45.543Z,9.42
2022-12-09T12:58:47.046Z,9.47
2022-12-09T12:59:54.718Z,9.43
2022-12-09T13:01:14.778Z,9.41
2022-12-09T13:02:32.932Z,9.42
2022-12-09T13:03:47.531Z,9.42
2022-12-09T13:04:50.646Z,9.41
2022-12-09T13:05:53.781Z,9.42
2022-12-09T13:07:02.342Z,9.43
2022-12-09T13:08:16.009Z,9.25
2022-12-09T13:09:37.793Z,9.39
2022-12-09T13:10:40.888Z,9.39
2022-12-09T13:11:55.267Z,9.43
2022-12-09T13:12:57.109Z,9.40
2022-12-09T13:14:06.482Z,9.39
2022-12-09T13:15:32.103Z,9.38
2022-12-09T13:16:38.207Z,9.38
2022-12-09T13:17:39.723Z,9.39
2022-12-09T13:18:41.213Z,9.34
2022-12-09T13:19:51.052Z,9.35
2022-12-09T13:20:52.583Z,9.31
2022-12-09T13:21:56.810Z,9.28
2022-12-09T13:23:17.337Z,9.22
2022-12-09T13:24:26.875Z,9.19
2022-12-09T13:25:34.346Z,9.18
2022-12-09T13:26:38.594Z,9.14
2022-12-09T13:27:45.390Z,9.13
2022-12-09T13:28:52.474Z,9.16
2022-12-09T13:30:03.185Z,9.17
2022-12-09T13:31:09.086Z,9.21
2022-12-09T13:32:29.265Z,9.20
2022-12-09T13:33:42.658Z,9.18
2022-12-09T13:34:54.391Z,9.20
2022-12-09T13:36:12.732Z,9.18
2022-12-09T13:37:32.930Z,9.15
2022-12-09T13:38:40.556Z,9.06
2022-12-09T13:39:49.503Z,9.02
2022-12-09T13:40:50.953Z,9.03
2022-12-09T13:42:10.871Z,9.00
2022-12-09T13:43:14.790Z,9.01
2022-12-09T13:44:22.290Z,9.05
2022-12-09T13:45:25.825Z,9.06
2022-12-09T13:46:27.478Z,9.10
2022-12-09T13:47:35.127Z,9.04
2022-12-09T13:48:38.290Z,9.03
2022-12-09T13:49:39.734Z,9.03
2022-12-09T13:50:42.199Z,9.04
2022-12-09T13:51:51.723Z,9.05
2022-12-09T13:52:54.466Z,9.08
2022-12-09T13:53:58.539Z,9.03
2022-12-09T13:55:03.140Z,8.98
2022-12-09T13:56:05.702Z,9.00
2022-12-09T13:57:13.359Z,9.02
2022-12-09T13:58:30.498Z,9.01
2022-12-09T13:59:31.940Z,9.02
2022-12-09T14:00:33.702Z,9.03
2022-12-09T14:01:36.578Z,9.06
2022-12-09T14:02:42.147Z,9.08
2022-12-09T14:03:57.701Z,9.07
2022-12-09T14:05:01.508Z,9.03
2022-12-09T14:06:05.338Z,9.06
2022-12-09T14:07:10.423Z,9.09
2022-12-09T14:08:37.525Z,9.10
2022-12-09T14:09:50.399Z,9.06
2022-12-09T14:10:53.251Z,9.07
2022-12-09T14:11:55.336Z,9.04
2022-12-09T14:13:03.853Z,9.05
2022-12-09T14:14:23.578Z,9.08
2022-12-09T14:15:25.038Z,9.01
2022-12-09T14:16:26.506Z,8.99
2022-12-09T14:17:31.650Z,8.95
2022-12-09T14:18:33.276Z,8.99
2022-12-09T14:19:44.320Z,9.00
2022-12-09T14:20:51.667Z,9.00
2022-12-09T14:22:17.973Z,9.02
2022-12-09T14:23:19.664Z,8.99
2022-12-09T14:24:21.089Z,9.00
2022-12-09T14:25:25.580Z,9.01
2022-12-09T14:26:35.129Z,9.02
2022-12-09T14:27:39.752Z,9.03
2022-12-09T14:28:50.414Z,9.03